Accueil
METAR-TAF:

METAR-TAF

Aéroports :

Aéroport Koltsovo

Iekaterinbourg, Russie

latitude: 56-50N, longitude: 060-38E, altitude: 237 m

Observation

Le bulletin a été fait il y a 30 minutes, à 01:30 UTC
Vent 17 kt de ouest/nord-ouest
Température 3°C
Humidité 70%
Pression 1009 hPa
Visibilité 10 km ou plus
Nuages épars à une hauteur de 3600 ft

METAR: USSS 210130Z 29009MPS 9999 SCT036 03/M02 Q1009 R26R/290536 NOSIG RMK QFE736/0981

Heure: 07:00 (02:00 UTC)

Prévision

Le bulletin a été fait il y a 3 heures et 3 minutes, à 22:57 UTC
Prévision valable du 21 à 00 UTC au 21 à 24 UTC
Vent 12 kt de ouest/nord-ouest avec des rafales jusqu'à 29 kt
Visibilité 10 km ou plus
Nuages fragmentés à une hauteur de 1500 ft, Cumulonimbus.

TAF: USSS 202257Z 2100/2124 29006G15MPS 9999 BKN015CB

Observations et prévisions météorologiques de plus de 4000 aéroports (messages METAR et TAF).

Les stations disponibles sont représentées par des disques jaunes et rouges sur la carte.

Passer la souris dessus pour voir le nom de la station.

Cliquer dessus pour voir les observations et prévisions météorologiques.

Pour changer de carte: cliquez sur les boutons verts avec une croix noire pour zoomer, sur le bouton vert avec un tiret pour effectuer un zoom arrière, ou sur les flèches vertes pour les cartes adjacentes.


METAR-TAF: